Lloseta, Spain
Current Conditions -  °F | °C
As of 2:30 AM on Monday 24 Nov 2014 (Local Time) from LEPA Reporting Station
Few Clouds Few Clouds  
Wind Chill: 64°   Ceiling: Unl
Heat Index: 64°   Visibility: 6mi
Dew Point: 59°   Wind: 1mph
Humidity: 83%   Direction: 310°NW
Pressure: 29.97"   Gusts: NA
Location:  39.72°N, 2.87°E
Report Text: LEPA 240130Z 31001KT 9999 FEW045 18/15 Q1015 NOSIG
Loading
Personal Weather Stations






























Interactive Weather Map New forecast layout! Learn more

10-Day Weather Forecast

Advertisements
Track Severe Weather on mobile